sensor_id;sensor_type;location;lat;lon;timestamp;P1;durP1;ratioP1;P2;durP2;ratioP2
59161;SDS011;44942;48.936;8.260;2023-04-24T00:01:52;3.23;;;2.57;;
59161;SDS011;44942;48.936;8.260;2023-04-24T00:06:53;3.17;;;2.30;;
59161;SDS011;44942;48.936;8.260;2023-04-24T00:11:57;2.65;;;2.08;;
59161;SDS011;44942;48.936;8.260;2023-04-24T00:16:57;2.95;;;2.00;;
59161;SDS011;44942;48.936;8.260;2023-04-24T00:21:58;2.37;;;1.87;;
59161;SDS011;44942;48.936;8.260;2023-04-24T00:26:58;2.43;;;1.80;;
59161;SDS011;44942;48.936;8.260;2023-04-24T00:32:00;2.40;;;1.95;;
59161;SDS011;44942;48.936;8.260;2023-04-24T00:37:01;2.30;;;2.10;;
59161;SDS011;44942;48.936;8.260;2023-04-24T00:42:02;2.33;;;2.00;;
59161;SDS011;44942;48.936;8.260;2023-04-24T00:47:02;2.20;;;2.00;;
59161;SDS011;44942;48.936;8.260;2023-04-24T00:52:03;2.72;;;2.10;;
59161;SDS011;44942;48.936;8.260;2023-04-24T00:57:07;2.92;;;2.30;;
59161;SDS011;44942;48.936;8.260;2023-04-24T01:02:09;2.97;;;2.50;;
59161;SDS011;44942;48.936;8.260;2023-04-24T01:07:10;2.17;;;1.98;;
59161;SDS011;44942;48.936;8.260;2023-04-24T01:12:11;2.50;;;2.20;;
59161;SDS011;44942;48.936;8.260;2023-04-24T01:17:12;3.03;;;1.95;;
59161;SDS011;44942;48.936;8.260;2023-04-24T01:22:13;2.87;;;2.13;;
59161;SDS011;44942;48.936;8.260;2023-04-24T01:27:14;2.58;;;2.38;;
59161;SDS011;44942;48.936;8.260;2023-04-24T01:32:15;2.60;;;2.40;;
59161;SDS011;44942;48.936;8.260;2023-04-24T01:37:16;2.33;;;2.10;;
59161;SDS011;44942;48.936;8.260;2023-04-24T01:42:18;2.97;;;2.22;;
59161;SDS011;44942;48.936;8.260;2023-04-24T01:47:19;2.70;;;2.22;;
59161;SDS011;44942;48.936;8.260;2023-04-24T01:52:20;2.28;;;2.03;;
59161;SDS011;44942;48.936;8.260;2023-04-24T01:57:21;2.05;;;1.85;;
59161;SDS011;44942;48.936;8.260;2023-04-24T02:02:22;2.35;;;1.92;;
59161;SDS011;44942;48.936;8.260;2023-04-24T02:07:29;2.88;;;2.00;;
59161;SDS011;44942;48.936;8.260;2023-04-24T02:12:30;2.20;;;1.80;;
59161;SDS011;44942;48.936;8.260;2023-04-24T02:17:30;2.00;;;1.80;;
59161;SDS011;44942;48.936;8.260;2023-04-24T02:22:31;2.93;;;1.90;;
59161;SDS011;44942;48.936;8.260;2023-04-24T02:27:31;2.67;;;2.00;;
59161;SDS011;44942;48.936;8.260;2023-04-24T02:32:32;2.43;;;2.23;;
59161;SDS011;44942;48.936;8.260;2023-04-24T02:42:34;3.20;;;1.90;;
59161;SDS011;44942;48.936;8.260;2023-04-24T02:47:35;2.27;;;1.93;;
59161;SDS011;44942;48.936;8.260;2023-04-24T02:52:35;3.10;;;1.70;;
59161;SDS011;44942;48.936;8.260;2023-04-24T02:57:36;2.63;;;2.03;;
59161;SDS011;44942;48.936;8.260;2023-04-24T03:02:36;1.97;;;1.57;;
59161;SDS011;44942;48.936;8.260;2023-04-24T03:07:37;1.63;;;1.33;;
59161;SDS011;44942;48.936;8.260;2023-04-24T03:12:38;1.50;;;1.40;;
59161;SDS011;44942;48.936;8.260;2023-04-24T03:17:38;1.40;;;1.30;;
59161;SDS011;44942;48.936;8.260;2023-04-24T03:22:39;1.50;;;1.40;;
59161;SDS011;44942;48.936;8.260;2023-04-24T03:27:39;2.03;;;1.50;;
59161;SDS011;44942;48.936;8.260;2023-04-24T03:32:40;1.50;;;1.30;;
59161;SDS011;44942;48.936;8.260;2023-04-24T03:37:41;1.53;;;1.43;;
59161;SDS011;44942;48.936;8.260;2023-04-24T03:42:41;2.50;;;1.60;;
59161;SDS011;44942;48.936;8.260;2023-04-24T03:47:42;1.77;;;1.50;;
59161;SDS011;44942;48.936;8.260;2023-04-24T03:52:42;1.90;;;1.53;;
59161;SDS011;44942;48.936;8.260;2023-04-24T03:57:43;1.67;;;1.50;;
59161;SDS011;44942;48.936;8.260;2023-04-24T04:02:43;1.97;;;1.47;;
59161;SDS011;44942;48.936;8.260;2023-04-24T04:07:44;1.73;;;1.60;;
59161;SDS011;44942;48.936;8.260;2023-04-24T04:12:45;2.50;;;1.80;;
59161;SDS011;44942;48.936;8.260;2023-04-24T04:17:45;1.70;;;1.60;;
59161;SDS011;44942;48.936;8.260;2023-04-24T04:22:46;1.50;;;1.40;;
59161;SDS011;44942;48.936;8.260;2023-04-24T04:27:47;2.03;;;1.63;;
59161;SDS011;44942;48.936;8.260;2023-04-24T04:32:48;3.03;;;1.50;;
59161;SDS011;44942;48.936;8.260;2023-04-24T04:37:49;1.57;;;1.30;;
59161;SDS011;44942;48.936;8.260;2023-04-24T04:42:49;1.63;;;1.47;;
59161;SDS011;44942;48.936;8.260;2023-04-24T04:47:52;1.65;;;1.55;;
59161;SDS011;44942;48.936;8.260;2023-04-24T04:52:55;2.20;;;1.40;;
59161;SDS011;44942;48.936;8.260;2023-04-24T04:57:55;1.40;;;1.30;;
59161;SDS011;44942;48.936;8.260;2023-04-24T05:02:56;3.40;;;1.70;;
59161;SDS011;44942;48.936;8.260;2023-04-24T05:07:56;1.70;;;1.30;;
59161;SDS011;44942;48.936;8.260;2023-04-24T05:12:57;1.30;;;1.20;;
59161;SDS011;44942;48.936;8.260;2023-04-24T05:17:58;1.70;;;1.53;;
59161;SDS011;44942;48.936;8.260;2023-04-24T05:22:58;1.70;;;1.43;;
59161;SDS011;44942;48.936;8.260;2023-04-24T05:27:59;1.70;;;1.50;;
59161;SDS011;44942;48.936;8.260;2023-04-24T05:32:59;6.33;;;1.57;;
59161;SDS011;44942;48.936;8.260;2023-04-24T05:38:00;3.77;;;1.57;;
59161;SDS011;44942;48.936;8.260;2023-04-24T05:43:01;17.40;;;2.03;;
59161;SDS011;44942;48.936;8.260;2023-04-24T05:48:02;5.47;;;1.67;;
59161;SDS011;44942;48.936;8.260;2023-04-24T05:53:03;3.95;;;1.65;;
59161;SDS011;44942;48.936;8.260;2023-04-24T05:58:04;13.65;;;2.17;;
59161;SDS011;44942;48.936;8.260;2023-04-24T06:03:05;14.27;;;1.98;;
59161;SDS011;44942;48.936;8.260;2023-04-24T06:08:06;10.13;;;1.67;;
59161;SDS011;44942;48.936;8.260;2023-04-24T06:13:06;8.47;;;1.80;;
59161;SDS011;44942;48.936;8.260;2023-04-24T06:18:07;5.07;;;1.60;;
59161;SDS011;44942;48.936;8.260;2023-04-24T06:23:10;4.47;;;1.70;;
59161;SDS011;44942;48.936;8.260;2023-04-24T06:28:10;7.43;;;1.90;;
59161;SDS011;44942;48.936;8.260;2023-04-24T06:33:12;4.35;;;1.85;;
59161;SDS011;44942;48.936;8.260;2023-04-24T06:38:13;4.37;;;1.60;;
59161;SDS011;44942;48.936;8.260;2023-04-24T06:43:13;3.57;;;1.80;;
59161;SDS011;44942;48.936;8.260;2023-04-24T06:48:14;2.92;;;1.70;;
59161;SDS011;44942;48.936;8.260;2023-04-24T06:53:15;7.80;;;2.17;;
59161;SDS011;44942;48.936;8.260;2023-04-24T06:58:16;4.53;;;1.70;;
59161;SDS011;44942;48.936;8.260;2023-04-24T07:03:16;5.47;;;1.73;;
59161;SDS011;44942;48.936;8.260;2023-04-24T07:08:17;3.83;;;1.47;;
59161;SDS011;44942;48.936;8.260;2023-04-24T07:13:18;1.97;;;1.50;;
59161;SDS011;44942;48.936;8.260;2023-04-24T07:18:20;4.83;;;1.77;;
59161;SDS011;44942;48.936;8.260;2023-04-24T07:23:20;3.72;;;1.70;;
59161;SDS011;44942;48.936;8.260;2023-04-24T07:28:21;6.93;;;1.80;;
59161;SDS011;44942;48.936;8.260;2023-04-24T07:33:22;2.43;;;1.50;;
59161;SDS011;44942;48.936;8.260;2023-04-24T07:38:22;3.57;;;1.80;;
59161;SDS011;44942;48.936;8.260;2023-04-24T07:43:25;3.67;;;1.70;;
59161;SDS011;44942;48.936;8.260;2023-04-24T07:48:26;2.45;;;1.58;;
59161;SDS011;44942;48.936;8.260;2023-04-24T07:53:27;3.40;;;1.80;;
59161;SDS011;44942;48.936;8.260;2023-04-24T07:58:28;2.57;;;1.53;;
59161;SDS011;44942;48.936;8.260;2023-04-24T08:03:28;3.33;;;1.80;;
59161;SDS011;44942;48.936;8.260;2023-04-24T08:08:29;2.63;;;1.60;;
59161;SDS011;44942;48.936;8.260;2023-04-24T08:13:29;2.00;;;1.50;;
59161;SDS011;44942;48.936;8.260;2023-04-24T08:18:30;3.13;;;1.60;;
59161;SDS011;44942;48.936;8.260;2023-04-24T08:23:31;1.70;;;1.60;;
59161;SDS011;44942;48.936;8.260;2023-04-24T08:28:31;2.40;;;1.40;;
59161;SDS011;44942;48.936;8.260;2023-04-24T08:33:34;2.92;;;1.58;;
59161;SDS011;44942;48.936;8.260;2023-04-24T08:38:35;2.47;;;1.63;;
59161;SDS011;44942;48.936;8.260;2023-04-24T08:43:36;2.60;;;1.60;;
59161;SDS011;44942;48.936;8.260;2023-04-24T08:48:38;2.28;;;1.50;;
59161;SDS011;44942;48.936;8.260;2023-04-24T08:53:40;1.70;;;1.58;;
59161;SDS011;44942;48.936;8.260;2023-04-24T08:58:40;1.70;;;1.60;;
59161;SDS011;44942;48.936;8.260;2023-04-24T09:03:42;4.68;;;1.65;;
59161;SDS011;44942;48.936;8.260;2023-04-24T09:08:43;1.92;;;1.52;;
59161;SDS011;44942;48.936;8.260;2023-04-24T09:13:46;3.63;;;1.85;;
59161;SDS011;44942;48.936;8.260;2023-04-24T09:18:48;3.15;;;1.70;;
59161;SDS011;44942;48.936;8.260;2023-04-24T09:23:59;4.05;;;1.73;;
59161;SDS011;44942;48.936;8.260;2023-04-24T09:29:01;3.50;;;2.05;;
59161;SDS011;44942;48.936;8.260;2023-04-24T09:34:04;8.23;;;1.90;;
59161;SDS011;44942;48.936;8.260;2023-04-24T09:39:11;5.30;;;1.90;;
59161;SDS011;44942;48.936;8.260;2023-04-24T09:44:14;6.82;;;1.70;;
59161;SDS011;44942;48.936;8.260;2023-04-24T09:49:16;5.57;;;1.90;;
59161;SDS011;44942;48.936;8.260;2023-04-24T09:54:22;3.22;;;1.88;;
59161;SDS011;44942;48.936;8.260;2023-04-24T09:59:24;5.18;;;2.00;;
59161;SDS011;44942;48.936;8.260;2023-04-24T10:04:25;9.30;;;2.13;;
59161;SDS011;44942;48.936;8.260;2023-04-24T10:09:27;5.07;;;1.90;;
59161;SDS011;44942;48.936;8.260;2023-04-24T10:14:27;7.70;;;2.00;;
59161;SDS011;44942;48.936;8.260;2023-04-24T10:19:30;4.47;;;2.00;;
59161;SDS011;44942;48.936;8.260;2023-04-24T10:24:31;6.30;;;1.90;;
59161;SDS011;44942;48.936;8.260;2023-04-24T10:29:35;4.22;;;2.08;;
59161;SDS011;44942;48.936;8.260;2023-04-24T10:34:36;4.35;;;2.10;;
59161;SDS011;44942;48.936;8.260;2023-04-24T10:39:36;6.13;;;1.87;;
59161;SDS011;44942;48.936;8.260;2023-04-24T10:44:37;3.78;;;1.80;;
59161;SDS011;44942;48.936;8.260;2023-04-24T10:49:39;2.75;;;1.70;;
59161;SDS011;44942;48.936;8.260;2023-04-24T10:54:41;3.72;;;1.70;;
59161;SDS011;44942;48.936;8.260;2023-04-24T10:59:45;2.70;;;1.70;;
59161;SDS011;44942;48.936;8.260;2023-04-24T11:04:46;4.03;;;1.98;;
59161;SDS011;44942;48.936;8.260;2023-04-24T11:09:57;3.28;;;1.50;;
59161;SDS011;44942;48.936;8.260;2023-04-24T11:15:01;3.50;;;1.65;;
59161;SDS011;44942;48.936;8.260;2023-04-24T11:20:05;2.60;;;1.65;;
59161;SDS011;44942;48.936;8.260;2023-04-24T11:25:09;2.20;;;1.67;;
59161;SDS011;44942;48.936;8.260;2023-04-24T11:30:11;2.13;;;1.50;;
59161;SDS011;44942;48.936;8.260;2023-04-24T11:35:17;1.60;;;1.50;;
59161;SDS011;44942;48.936;8.260;2023-04-24T11:40:20;3.55;;;1.90;;
59161;SDS011;44942;48.936;8.260;2023-04-24T11:45:26;1.55;;;1.40;;
59161;SDS011;44942;48.936;8.260;2023-04-24T11:50:28;2.17;;;1.80;;
59161;SDS011;44942;48.936;8.260;2023-04-24T11:55:29;5.75;;;1.60;;
59161;SDS011;44942;48.936;8.260;2023-04-24T12:00:31;4.25;;;1.60;;
59161;SDS011;44942;48.936;8.260;2023-04-24T12:05:34;2.42;;;1.60;;
59161;SDS011;44942;48.936;8.260;2023-04-24T12:10:35;2.63;;;1.58;;
59161;SDS011;44942;48.936;8.260;2023-04-24T12:15:36;2.40;;;1.60;;
59161;SDS011;44942;48.936;8.260;2023-04-24T12:20:40;2.22;;;1.70;;
59161;SDS011;44942;48.936;8.260;2023-04-24T12:25:41;2.60;;;1.63;;
59161;SDS011;44942;48.936;8.260;2023-04-24T12:30:42;1.60;;;1.50;;
59161;SDS011;44942;48.936;8.260;2023-04-24T12:35:50;1.83;;;1.63;;
59161;SDS011;44942;48.936;8.260;2023-04-24T12:41:03;2.13;;;1.73;;
59161;SDS011;44942;48.936;8.260;2023-04-24T12:46:05;2.38;;;1.80;;
59161;SDS011;44942;48.936;8.260;2023-04-24T12:51:05;2.38;;;1.55;;
59161;SDS011;44942;48.936;8.260;2023-04-24T12:56:06;2.07;;;1.70;;
59161;SDS011;44942;48.936;8.260;2023-04-24T13:01:06;1.60;;;1.50;;
59161;SDS011;44942;48.936;8.260;2023-04-24T13:06:07;1.90;;;1.53;;
59161;SDS011;44942;48.936;8.260;2023-04-24T13:11:08;2.40;;;1.53;;
59161;SDS011;44942;48.936;8.260;2023-04-24T13:16:09;2.08;;;1.60;;
59161;SDS011;44942;48.936;8.260;2023-04-24T13:21:09;13.13;;;2.07;;
59161;SDS011;44942;48.936;8.260;2023-04-24T13:26:10;3.83;;;1.60;;
59161;SDS011;44942;48.936;8.260;2023-04-24T13:31:10;2.47;;;1.60;;
59161;SDS011;44942;48.936;8.260;2023-04-24T13:36:11;4.83;;;1.70;;
59161;SDS011;44942;48.936;8.260;2023-04-24T13:41:11;7.83;;;1.60;;
59161;SDS011;44942;48.936;8.260;2023-04-24T13:46:12;2.20;;;1.50;;
59161;SDS011;44942;48.936;8.260;2023-04-24T13:51:13;2.97;;;1.53;;
59161;SDS011;44942;48.936;8.260;2023-04-24T13:56:13;3.63;;;1.60;;
59161;SDS011;44942;48.936;8.260;2023-04-24T14:01:14;4.65;;;1.65;;
59161;SDS011;44942;48.936;8.260;2023-04-24T14:06:15;5.65;;;1.80;;
59161;SDS011;44942;48.936;8.260;2023-04-24T14:11:16;2.70;;;1.60;;
59161;SDS011;44942;48.936;8.260;2023-04-24T14:16:18;4.50;;;1.63;;
59161;SDS011;44942;48.936;8.260;2023-04-24T14:21:18;3.73;;;1.87;;
59161;SDS011;44942;48.936;8.260;2023-04-24T14:26:19;3.10;;;1.80;;
59161;SDS011;44942;48.936;8.260;2023-04-24T14:31:20;3.03;;;1.55;;
59161;SDS011;44942;48.936;8.260;2023-04-24T14:36:20;2.50;;;1.60;;
59161;SDS011;44942;48.936;8.260;2023-04-24T14:41:21;3.53;;;1.63;;
59161;SDS011;44942;48.936;8.260;2023-04-24T14:46:21;1.90;;;1.60;;
59161;SDS011;44942;48.936;8.260;2023-04-24T14:51:22;5.20;;;1.60;;
59161;SDS011;44942;48.936;8.260;2023-04-24T14:56:23;2.47;;;1.67;;
59161;SDS011;44942;48.936;8.260;2023-04-24T15:01:23;1.97;;;1.50;;
59161;SDS011;44942;48.936;8.260;2023-04-24T15:06:24;4.17;;;1.70;;
59161;SDS011;44942;48.936;8.260;2023-04-24T15:11:25;3.47;;;1.73;;
59161;SDS011;44942;48.936;8.260;2023-04-24T15:16:26;2.38;;;1.60;;
59161;SDS011;44942;48.936;8.260;2023-04-24T15:21:26;1.80;;;1.70;;
59161;SDS011;44942;48.936;8.260;2023-04-24T15:26:27;2.17;;;1.87;;
59161;SDS011;44942;48.936;8.260;2023-04-24T15:31:27;1.73;;;1.63;;
59161;SDS011;44942;48.936;8.260;2023-04-24T15:36:28;1.43;;;1.33;;
59161;SDS011;44942;48.936;8.260;2023-04-24T15:41:28;3.80;;;1.80;;
59161;SDS011;44942;48.936;8.260;2023-04-24T15:46:34;1.90;;;1.70;;
59161;SDS011;44942;48.936;8.260;2023-04-24T15:51:35;2.67;;;1.77;;
59161;SDS011;44942;48.936;8.260;2023-04-24T15:56:36;9.18;;;1.50;;
59161;SDS011;44942;48.936;8.260;2023-04-24T16:01:36;3.43;;;1.70;;
59161;SDS011;44942;48.936;8.260;2023-04-24T16:06:37;9.70;;;1.90;;
59161;SDS011;44942;48.936;8.260;2023-04-24T16:11:38;2.30;;;1.70;;
59161;SDS011;44942;48.936;8.260;2023-04-24T16:16:38;2.27;;;1.87;;
59161;SDS011;44942;48.936;8.260;2023-04-24T16:21:39;2.13;;;1.53;;
59161;SDS011;44942;48.936;8.260;2023-04-24T16:26:39;2.65;;;1.60;;
59161;SDS011;44942;48.936;8.260;2023-04-24T16:31:40;1.70;;;1.53;;
59161;SDS011;44942;48.936;8.260;2023-04-24T16:36:41;2.38;;;1.63;;
59161;SDS011;44942;48.936;8.260;2023-04-24T16:41:42;4.07;;;1.70;;
59161;SDS011;44942;48.936;8.260;2023-04-24T16:46:42;3.63;;;1.60;;
59161;SDS011;44942;48.936;8.260;2023-04-24T16:51:43;2.47;;;1.60;;
59161;SDS011;44942;48.936;8.260;2023-04-24T16:56:44;4.50;;;1.73;;
59161;SDS011;44942;48.936;8.260;2023-04-24T17:01:45;3.50;;;1.70;;
59161;SDS011;44942;48.936;8.260;2023-04-24T17:06:46;4.28;;;1.60;;
59161;SDS011;44942;48.936;8.260;2023-04-24T17:11:49;4.82;;;1.98;;
59161;SDS011;44942;48.936;8.260;2023-04-24T17:16:50;3.80;;;1.70;;
59161;SDS011;44942;48.936;8.260;2023-04-24T17:21:50;2.30;;;1.63;;
59161;SDS011;44942;48.936;8.260;2023-04-24T17:26:52;4.53;;;1.77;;
59161;SDS011;44942;48.936;8.260;2023-04-24T17:31:52;4.80;;;1.98;;
59161;SDS011;44942;48.936;8.260;2023-04-24T17:36:53;4.37;;;1.77;;
59161;SDS011;44942;48.936;8.260;2023-04-24T17:41:53;2.80;;;1.90;;
59161;SDS011;44942;48.936;8.260;2023-04-24T17:46:54;2.33;;;1.83;;
59161;SDS011;44942;48.936;8.260;2023-04-24T17:51:55;2.45;;;1.60;;
59161;SDS011;44942;48.936;8.260;2023-04-24T17:56:56;2.47;;;1.87;;
59161;SDS011;44942;48.936;8.260;2023-04-24T18:01:56;2.37;;;1.60;;
59161;SDS011;44942;48.936;8.260;2023-04-24T18:06:57;4.93;;;1.80;;
59161;SDS011;44942;48.936;8.260;2023-04-24T18:11:57;1.70;;;1.50;;
59161;SDS011;44942;48.936;8.260;2023-04-24T18:16:58;4.10;;;1.77;;
59161;SDS011;44942;48.936;8.260;2023-04-24T18:21:59;2.53;;;1.50;;
59161;SDS011;44942;48.936;8.260;2023-04-24T18:26:59;1.70;;;1.60;;
59161;SDS011;44942;48.936;8.260;2023-04-24T18:32:00;2.10;;;1.70;;
59161;SDS011;44942;48.936;8.260;2023-04-24T18:37:03;2.17;;;1.55;;
59161;SDS011;44942;48.936;8.260;2023-04-24T18:42:03;2.20;;;1.73;;
59161;SDS011;44942;48.936;8.260;2023-04-24T18:47:04;2.13;;;1.60;;
59161;SDS011;44942;48.936;8.260;2023-04-24T18:52:04;3.63;;;1.63;;
59161;SDS011;44942;48.936;8.260;2023-04-24T18:57:05;1.90;;;1.43;;
59161;SDS011;44942;48.936;8.260;2023-04-24T19:02:06;3.40;;;1.80;;
59161;SDS011;44942;48.936;8.260;2023-04-24T19:07:07;3.15;;;1.70;;
59161;SDS011;44942;48.936;8.260;2023-04-24T19:12:07;2.13;;;1.63;;
59161;SDS011;44942;48.936;8.260;2023-04-24T19:17:08;1.97;;;1.47;;
59161;SDS011;44942;48.936;8.260;2023-04-24T19:22:09;3.15;;;1.50;;
59161;SDS011;44942;48.936;8.260;2023-04-24T19:32:11;1.50;;;1.40;;
59161;SDS011;44942;48.936;8.260;2023-04-24T19:37:12;1.90;;;1.70;;
59161;SDS011;44942;48.936;8.260;2023-04-24T19:42:12;12.83;;;2.40;;
59161;SDS011;44942;48.936;8.260;2023-04-24T19:47:13;15.50;;;2.50;;
59161;SDS011;44942;48.936;8.260;2023-04-24T19:52:14;6.87;;;2.30;;
59161;SDS011;44942;48.936;8.260;2023-04-24T19:57:14;7.32;;;2.22;;
59161;SDS011;44942;48.936;8.260;2023-04-24T20:02:15;5.90;;;2.00;;
59161;SDS011;44942;48.936;8.260;2023-04-24T20:07:16;6.10;;;2.20;;
59161;SDS011;44942;48.936;8.260;2023-04-24T20:12:16;5.07;;;2.30;;
59161;SDS011;44942;48.936;8.260;2023-04-24T20:17:18;7.82;;;2.42;;
59161;SDS011;44942;48.936;8.260;2023-04-24T20:22:18;3.73;;;2.40;;
59161;SDS011;44942;48.936;8.260;2023-04-24T20:27:19;3.90;;;2.47;;
59161;SDS011;44942;48.936;8.260;2023-04-24T20:32:20;4.47;;;2.35;;
59161;SDS011;44942;48.936;8.260;2023-04-24T20:37:20;3.13;;;1.97;;
59161;SDS011;44942;48.936;8.260;2023-04-24T20:42:21;2.87;;;2.27;;
59161;SDS011;44942;48.936;8.260;2023-04-24T20:47:21;6.50;;;2.23;;
59161;SDS011;44942;48.936;8.260;2023-04-24T20:52:22;2.17;;;1.80;;
59161;SDS011;44942;48.936;8.260;2023-04-24T20:57:23;3.10;;;2.50;;
59161;SDS011;44942;48.936;8.260;2023-04-24T21:02:23;2.33;;;2.13;;
59161;SDS011;44942;48.936;8.260;2023-04-24T21:07:24;4.10;;;2.40;;
59161;SDS011;44942;48.936;8.260;2023-04-24T21:12:25;2.72;;;2.30;;
59161;SDS011;44942;48.936;8.260;2023-04-24T21:17:25;2.53;;;2.13;;
59161;SDS011;44942;48.936;8.260;2023-04-24T21:22:26;2.50;;;2.10;;
59161;SDS011;44942;48.936;8.260;2023-04-24T21:27:27;2.93;;;2.00;;
59161;SDS011;44942;48.936;8.260;2023-04-24T21:32:27;2.40;;;2.13;;
59161;SDS011;44942;48.936;8.260;2023-04-24T21:37:28;2.23;;;2.03;;
59161;SDS011;44942;48.936;8.260;2023-04-24T21:42:29;2.40;;;1.85;;
59161;SDS011;44942;48.936;8.260;2023-04-24T21:47:30;2.70;;;2.10;;
59161;SDS011;44942;48.936;8.260;2023-04-24T21:52:31;4.80;;;2.37;;
59161;SDS011;44942;48.936;8.260;2023-04-24T21:57:32;2.03;;;1.93;;
59161;SDS011;44942;48.936;8.260;2023-04-24T22:02:33;2.95;;;1.80;;
59161;SDS011;44942;48.936;8.260;2023-04-24T22:07:34;2.80;;;1.98;;
59161;SDS011;44942;48.936;8.260;2023-04-24T22:12:35;2.40;;;1.98;;
59161;SDS011;44942;48.936;8.260;2023-04-24T22:17:36;2.80;;;1.80;;
59161;SDS011;44942;48.936;8.260;2023-04-24T22:22:37;2.28;;;2.08;;
59161;SDS011;44942;48.936;8.260;2023-04-24T22:27:38;2.10;;;1.90;;
59161;SDS011;44942;48.936;8.260;2023-04-24T22:32:39;3.23;;;2.00;;
59161;SDS011;44942;48.936;8.260;2023-04-24T22:37:39;2.30;;;2.07;;
59161;SDS011;44942;48.936;8.260;2023-04-24T22:42:40;2.10;;;1.90;;
59161;SDS011;44942;48.936;8.260;2023-04-24T22:47:41;2.70;;;2.00;;
59161;SDS011;44942;48.936;8.260;2023-04-24T22:52:41;2.27;;;2.00;;
59161;SDS011;44942;48.936;8.260;2023-04-24T22:57:42;3.15;;;2.03;;
59161;SDS011;44942;48.936;8.260;2023-04-24T23:02:43;2.33;;;2.03;;
59161;SDS011;44942;48.936;8.260;2023-04-24T23:07:44;3.78;;;2.10;;
59161;SDS011;44942;48.936;8.260;2023-04-24T23:12:45;2.20;;;1.90;;
59161;SDS011;44942;48.936;8.260;2023-04-24T23:17:45;2.77;;;1.80;;
59161;SDS011;44942;48.936;8.260;2023-04-24T23:22:46;2.37;;;1.93;;
59161;SDS011;44942;48.936;8.260;2023-04-24T23:27:47;2.67;;;2.00;;
59161;SDS011;44942;48.936;8.260;2023-04-24T23:32:47;1.77;;;1.67;;
59161;SDS011;44942;48.936;8.260;2023-04-24T23:37:48;3.13;;;2.17;;
59161;SDS011;44942;48.936;8.260;2023-04-24T23:42:48;2.10;;;1.90;;
59161;SDS011;44942;48.936;8.260;2023-04-24T23:47:49;3.67;;;2.00;;
59161;SDS011;44942;48.936;8.260;2023-04-24T23:52:50;2.00;;;1.80;;
59161;SDS011;44942;48.936;8.260;2023-04-24T23:57:50;1.70;;;1.60;;
